Terminal Aerodrome Forecast
Issued by NWS

Home | Current Version | Previous Version | Text Only | Print | Product List | Glossary On
Versions: 1 2 3 4 5 6 7 8 9 10 11 12 13 14 15 16 17 18 19 20 21 22 23 24 25 26 27 28 29 30 31 32 33 34
000
FTUS45 KGJT 280521
TAFEGE
TAF
KEGE 280521Z 2806/2906 10005KT P6SM SCT090 BKN200
     FM281000 00000KT P6SM BKN090 OVC200
     FM281900 24006KT P6SM VCSH OVC080
     FM290000 27005KT P6SM -SN SCT035 OVC060
      AMD LTD TO CLD VIS AND WIND TIL 281400=

USA.gov is the U.S. government's official web portal to all federal, state and local government web resources and services.